Time;durP1;ratioP1;P1;durP2;ratioP2;P2;SDS_P1;SDS_P2;PMS_P1;PMS_P2;Temp;Humidity;BMP_temperature;BMP_pressure;BME280_temperature;BME280_humidity;BME280_pressure;Samples;Min_cycle;Max_cycle;Signal;HPM_P1;HPM_P2
2021/06/10 00:00:00;;;;;;;5.32;4.82;;;21.70;90.60;21.60;99919.00;;;;337381;28;96223;-91
2021/06/10 00:00:21;;;;;;;5.32;4.63;;;21.70;90.60;21.70;99925.00;;;;340171;28;91999;-91
2021/06/10 00:00:33;;;;;;;5.10;4.65;;;21.70;90.70;21.70;99929.00;;;;338769;28;95642;-91
2021/06/10 00:00:45;;;;;;;4.93;4.53;;;21.70;90.70;21.40;99928.00;;;;338650;28;92075;-92
2021/06/10 00:00:57;;;;;;;5.40;4.90;;;21.70;90.60;21.30;99918.00;;;;338773;28;94637;-91
2021/06/10 00:01:08;;;;;;;5.60;5.10;;;21.70;90.60;21.50;99920.00;;;;339979;28;91099;-90
2021/06/10 00:01:20;;;;;;;5.30;4.80;;;21.70;90.60;21.50;99926.00;;;;338761;28;94453;-90
2021/06/10 00:01:32;;;;;;;5.55;5.05;;;21.70;90.70;21.50;99928.00;;;;340694;28;91208;-89
2021/06/10 00:01:44;;;;;;;5.32;4.82;;;21.70;90.70;21.50;99918.00;;;;341540;28;93338;-91
2021/06/10 00:01:56;;;;;;;4.80;4.40;;;21.70;90.70;21.40;99922.00;;;;338592;28;92211;-91
2021/06/10 00:02:08;;;;;;;4.75;4.35;;;21.70;90.70;21.40;99919.00;;;;341516;28;94627;-91
2021/06/10 00:02:20;;;;;;;5.32;4.90;;;21.70;90.70;21.00;99918.00;;;;339522;28;91967;-91
2021/06/10 00:02:32;;;;;;;5.90;5.40;;;21.60;90.70;20.90;99917.00;;;;338892;28;93855;-91
2021/06/10 00:02:44;;;;;;;5.88;5.28;;;21.50;90.70;20.80;99919.00;;;;336002;28;92075;-91
2021/06/10 00:02:56;;;;;;;5.30;4.72;;;21.50;90.90;20.80;99923.00;;;;337610;28;94182;-91
2021/06/10 00:03:07;;;;;;;5.53;5.03;;;21.40;90.90;20.80;99919.00;;;;337258;28;92059;-91
2021/06/10 00:03:19;;;;;;;5.55;5.05;;;21.40;91.00;20.80;99923.00;;;;337603;28;94532;-91
2021/06/10 00:03:31;;;;;;;5.90;5.35;;;21.40;91.00;20.90;99921.00;;;;338828;28;91162;-90
2021/06/10 00:03:43;;;;;;;5.82;5.30;;;21.40;91.10;21.10;99922.00;;;;337468;28;96516;-91
2021/06/10 00:03:55;;;;;;;5.55;5.05;;;21.40;91.20;21.10;99928.00;;;;338678;28;91982;-91
2021/06/10 00:04:07;;;;;;;5.40;4.90;;;21.40;91.20;21.10;99919.00;;;;337486;28;97177;-91
2021/06/10 00:04:18;;;;;;;5.45;4.97;;;21.30;91.50;21.20;99919.00;;;;338436;28;91973;-89
2021/06/10 00:04:31;;;;;;;5.82;5.32;;;21.30;91.40;21.20;99917.00;;;;337504;28;97491;-90
2021/06/10 00:04:43;;;;;;;5.60;5.10;;;21.30;91.30;21.00;99921.00;;;;337376;28;92003;-90
2021/06/10 00:04:55;;;;;;;5.82;5.30;;;21.30;91.30;20.90;99920.00;;;;336295;28;93310;-91
2021/06/10 00:05:08;;;;;;;5.88;5.28;;;21.30;91.30;21.10;99918.00;;;;334756;29;91970;-90
2021/06/10 00:05:21;;;;;;;5.95;5.28;;;21.30;91.20;21.20;99922.00;;;;336135;28;92453;-90
2021/06/10 00:05:33;;;;;;;5.60;5.00;;;21.30;91.30;21.20;99918.00;;;;337430;28;91288;-91
2021/06/10 00:05:45;;;;;;;5.38;4.97;;;21.30;91.40;21.20;99921.00;;;;338989;28;92223;-91
2021/06/10 00:05:57;;;;;;;5.15;4.75;;;21.30;91.40;21.20;99923.00;;;;335995;28;92128;-91
2021/06/10 00:06:08;;;;;;;5.47;4.97;;;21.30;91.40;21.10;99923.00;;;;337537;28;93833;-91
2021/06/10 00:06:20;;;;;;;5.55;5.05;;;21.30;91.30;21.10;99918.00;;;;335971;28;92389;-91
2021/06/10 00:06:32;;;;;;;5.78;5.20;;;21.30;91.30;21.10;99919.00;;;;340030;28;97758;-91
2021/06/10 00:06:44;;;;;;;5.68;5.18;;;21.30;91.20;21.10;99916.00;;;;341337;28;92045;-91
2021/06/10 00:06:56;;;;;;;5.55;5.05;;;21.30;91.30;21.20;99924.00;;;;340200;28;94286;-91
2021/06/10 00:07:07;;;;;;;5.65;5.15;;;21.30;91.30;21.30;99914.00;;;;338732;28;92015;-91
2021/06/10 00:07:20;;;;;;;5.32;4.82;;;21.30;91.30;21.30;99922.00;;;;338489;28;95671;-91
2021/06/10 00:07:31;;;;;;;5.25;4.75;;;21.30;91.30;21.30;99918.00;;;;338047;28;91258;-91
2021/06/10 00:07:43;;;;;;;5.43;4.93;;;21.30;91.20;21.20;99914.00;;;;341373;28;95046;-91
2021/06/10 00:07:55;;;;;;;5.45;5.00;;;21.30;91.20;21.20;99916.00;;;;341440;28;92045;-90
2021/06/10 00:08:08;;;;;;;5.43;5.00;;;21.30;91.30;21.10;99918.00;;;;338829;28;95399;-91
2021/06/10 00:08:19;;;;;;;5.55;5.05;;;21.30;91.30;21.30;99914.00;;;;339841;28;91933;-91
2021/06/10 00:08:34;;;;;;;5.47;4.97;;;21.30;91.20;21.20;99923.00;;;;340245;28;92757;-91
2021/06/10 00:08:45;;;;;;;5.53;5.03;;;21.30;91.30;21.30;99919.00;;;;338709;28;91174;-91
2021/06/10 00:08:57;;;;;;;5.72;5.22;;;21.30;91.30;21.20;99915.00;;;;340277;28;94384;-91
2021/06/10 00:09:09;;;;;;;5.30;4.85;;;21.30;91.30;21.30;99910.00;;;;342650;28;91965;-91
2021/06/10 00:09:21;;;;;;;5.25;4.75;;;21.30;91.30;21.30;99917.00;;;;337551;28;94801;-91
2021/06/10 00:09:33;;;;;;;5.53;5.00;;;21.30;91.30;21.40;99915.00;;;;338675;28;91334;-91
2021/06/10 00:09:45;;;;;;;5.97;5.30;;;21.30;91.30;21.40;99908.00;;;;338861;28;96496;-91
2021/06/10 00:09:57;;;;;;;5.75;5.25;;;21.40;91.30;21.30;99919.00;;;;339984;28;92032;-90
2021/06/10 00:10:11;;;;;;;5.47;4.97;;;21.40;91.30;21.30;99911.00;;;;338669;28;94533;-91
2021/06/10 00:10:24;;;;;;;5.28;4.70;;;21.40;91.30;21.30;99914.00;;;;339463;28;91177;-91
2021/06/10 00:10:38;;;;;;;5.55;4.82;;;21.40;91.30;21.30;99922.00;;;;341458;28;93119;-91
2021/06/10 00:10:52;;;;;;;5.32;4.82;;;21.40;91.30;21.30;99916.00;;;;339568;28;91434;-91
2021/06/10 00:11:04;;;;;;;5.03;4.53;;;21.40;91.30;21.20;99922.00;;;;337627;28;93416;-90
2021/06/10 00:11:16;;;;;;;4.97;4.47;;;21.40;91.40;21.10;99917.00;;;;338626;28;92408;-90
2021/06/10 00:11:28;;;;;;;5.13;4.63;;;21.40;91.30;21.00;99914.00;;;;338781;28;96337;-91
2021/06/10 00:11:40;;;;;;;5.65;4.78;;;21.30;91.20;20.90;99916.00;;;;339867;28;91335;-91
2021/06/10 00:11:51;;;;;;;5.63;4.63;;;21.30;91.20;21.00;99915.00;;;;337666;28;93833;-91
2021/06/10 00:12:04;;;;;;;5.63;4.75;;;21.30;91.50;21.00;99917.00;;;;337318;28;92101;-91
2021/06/10 00:12:18;;;;;;;6.88;4.85;;;21.30;91.30;21.20;99918.00;;;;339734;28;95989;-90
2021/06/10 00:12:29;;;;;;;7.70;5.20;;;21.30;91.20;21.10;99915.00;;;;340015;28;91104;-90
2021/06/10 00:12:42;;;;;;;5.78;5.25;;;21.30;91.30;21.10;99915.00;;;;338769;28;96233;-91
2021/06/10 00:12:54;;;;;;;5.78;5.28;;;21.30;91.30;21.20;99923.00;;;;337471;28;91933;-92
2021/06/10 00:13:06;;;;;;;5.40;5.00;;;21.30;91.30;21.10;99923.00;;;;340289;28;93022;-91
2021/06/10 00:13:17;;;;;;;5.93;5.43;;;21.30;91.40;21.10;99915.00;;;;339113;28;92037;-91
2021/06/10 00:13:30;;;;;;;5.80;5.30;;;21.30;91.40;21.10;99921.00;;;;342492;28;93327;-92
2021/06/10 00:13:43;;;;;;;7.13;5.50;;;21.30;91.40;21.00;99910.00;;;;339990;28;91303;-91
2021/06/10 00:13:55;;;;;;;6.43;5.13;;;21.30;91.40;21.10;99916.00;;;;341362;28;96654;-91
2021/06/10 00:14:06;;;;;;;6.15;5.07;;;21.30;91.40;21.30;99913.00;;;;342747;28;92059;-91
2021/06/10 00:14:18;;;;;;;5.10;4.70;;;21.30;91.40;21.30;99917.00;;;;337838;28;93039;-90
2021/06/10 00:14:30;;;;;;;5.00;4.60;;;21.30;91.40;21.40;99917.00;;;;339973;28;91401;-90
2021/06/10 00:14:43;;;;;;;5.25;4.75;;;21.30;91.30;21.30;99907.00;;;;338823;28;95791;-90
2021/06/10 00:14:54;;;;;;;5.90;5.35;;;21.30;91.30;21.00;99923.00;;;;338701;28;91150;-91
2021/06/10 00:15:08;;;;;;;7.40;5.75;;;21.30;91.30;20.90;99925.00;;;;338806;28;96048;-90
2021/06/10 00:15:32;;;;;;;8.02;5.57;;;21.30;91.30;21.20;99923.00;;;;337037;28;92138;-90
2021/06/10 00:15:44;;;;;;;5.53;5.03;;;21.30;91.70;21.30;99916.00;;;;338823;28;95710;-90
2021/06/10 00:15:56;;;;;;;6.20;5.15;;;21.30;91.50;21.30;99919.00;;;;335955;28;91378;-92
2021/06/10 00:16:08;;;;;;;6.03;5.03;;;21.30;91.50;21.40;99916.00;;;;340139;28;95996;-91
2021/06/10 00:16:20;;;;;;;6.80;5.00;;;21.30;91.40;21.40;99919.00;;;;340265;28;92194;-91
2021/06/10 00:16:32;;;;;;;5.85;4.88;;;21.30;91.40;21.40;99916.00;;;;341715;28;92275;-89
2021/06/10 00:16:44;;;;;;;5.32;4.70;;;21.30;91.30;21.50;99914.00;;;;340064;28;91972;-90
2021/06/10 00:16:56;;;;;;;5.00;4.50;;;21.30;91.30;21.40;99917.00;;;;338844;28;96496;-91
2021/06/10 00:17:08;;;;;;;5.50;4.70;;;21.30;91.30;21.20;99915.00;;;;337317;28;92076;-91
2021/06/10 00:17:20;;;;;;;5.60;5.00;;;21.30;91.50;21.20;99913.00;;;;338799;28;93122;-90
2021/06/10 00:17:32;;;;;;;6.03;5.00;;;21.30;91.30;21.40;99916.00;;;;341484;28;91881;-91
2021/06/10 00:17:44;;;;;;;5.10;4.60;;;21.40;91.30;21.10;99923.00;;;;338912;28;94850;-91
2021/06/10 00:17:57;;;;;;;4.85;4.45;;;21.40;91.40;21.00;99916.00;;;;338666;28;91688;-91
2021/06/10 00:18:09;;;;;;;5.18;4.78;;;21.30;91.20;21.20;99920.00;;;;341464;28;96013;-91
2021/06/10 00:18:21;;;;;;;5.22;4.72;;;21.30;91.30;21.20;99913.00;;;;341519;28;91830;-90
2021/06/10 00:18:33;;;;;;;5.32;4.45;;;21.30;91.40;21.30;99917.00;;;;337471;28;93276;-91
2021/06/10 00:18:48;;;;;;;5.03;4.40;;;21.30;91.40;21.30;99914.00;;;;335932;28;91995;-91
2021/06/10 00:19:00;;;;;;;5.43;5.00;;;21.30;91.30;21.00;99912.00;;;;336265;28;94240;-90
2021/06/10 00:19:13;;;;;;;5.72;5.30;;;21.30;91.30;21.00;99915.00;;;;336033;28;92509;-91
2021/06/10 00:19:25;;;;;;;5.80;5.30;;;21.30;91.30;20.90;99921.00;;;;339079;28;97758;-91
2021/06/10 00:19:37;;;;;;;5.78;5.28;;;21.20;91.30;20.90;99916.00;;;;338741;28;91247;-91
2021/06/10 00:19:49;;;;;;;5.70;5.20;;;21.20;91.30;20.80;99918.00;;;;340097;28;93183;-90
2021/06/10 00:20:01;;;;;;;5.65;5.13;;;21.20;91.30;20.80;99912.00;;;;340216;28;91173;-91
2021/06/10 00:20:14;;;;;;;5.60;5.07;;;21.20;91.40;20.80;99922.00;;;;340197;28;96052;-91
2021/06/10 00:20:27;;;;;;;5.65;5.15;;;21.20;91.50;21.00;99913.00;;;;338655;28;92495;-91
2021/06/10 00:20:40;;;;;;;5.68;5.18;;;21.20;91.50;21.10;99914.00;;;;338766;28;96030;-90
2021/06/10 00:20:51;;;;;;;5.85;5.25;;;21.20;91.60;21.20;99907.00;;;;338801;28;91983;-91
2021/06/10 00:21:04;;;;;;;6.05;5.15;;;21.20;91.60;21.30;99910.00;;;;340394;28;93938;-91
2021/06/10 00:21:16;;;;;;;5.63;4.93;;;21.20;91.50;21.20;99914.00;;;;340110;28;92033;-90
2021/06/10 00:21:28;;;;;;;5.40;4.90;;;21.20;91.50;21.00;99904.00;;;;341486;28;97163;-91
2021/06/10 00:21:41;;;;;;;5.65;5.05;;;21.20;91.50;21.00;99909.00;;;;341474;28;91852;-91
2021/06/10 00:21:53;;;;;;;6.18;5.05;;;21.20;91.50;21.00;99921.00;;;;341574;28;94452;-91
2021/06/10 00:22:05;;;;;;;5.70;5.20;;;21.20;91.50;20.90;99914.00;;;;339818;28;91210;-90
2021/06/10 00:22:17;;;;;;;6.00;5.50;;;21.20;91.50;20.80;99909.00;;;;337129;28;95862;-91
2021/06/10 00:22:28;;;;;;;5.93;5.43;;;21.20;91.60;20.90;99918.00;;;;338694;28;92068;-91
2021/06/10 00:22:40;;;;;;;5.70;5.20;;;21.20;91.60;21.00;99907.00;;;;341515;28;94693;-90
2021/06/10 00:22:54;;;;;;;5.40;4.90;;;21.20;91.50;21.10;99909.00;;;;337494;28;92019;-91
2021/06/10 00:23:06;;;;;;;5.53;5.03;;;21.20;91.60;21.00;99910.00;;;;340180;28;96585;-91
2021/06/10 00:23:18;;;;;;;5.80;5.32;;;21.20;91.70;21.20;99912.00;;;;338450;28;92044;-91
2021/06/10 00:23:30;;;;;;;6.07;5.57;;;21.20;91.70;21.20;99908.00;;;;338863;28;95530;-91
2021/06/10 00:23:42;;;;;;;5.90;5.40;;;21.20;91.60;21.10;99910.00;;;;337453;28;91780;-91
2021/06/10 00:23:54;;;;;;;5.53;5.03;;;21.20;91.60;21.10;99908.00;;;;338841;28;94990;-90
2021/06/10 00:24:06;;;;;;;5.82;5.32;;;21.20;91.60;21.10;99904.00;;;;337414;28;91678;-91
2021/06/10 00:24:18;;;;;;;5.68;5.07;;;21.20;91.60;21.10;99904.00;;;;337657;28;92356;-91
2021/06/10 00:24:30;;;;;;;5.32;4.82;;;21.20;91.50;21.00;99908.00;;;;337330;28;92121;-91
2021/06/10 00:24:42;;;;;;;5.18;4.70;;;21.20;91.50;21.00;99907.00;;;;338825;28;96211;-91
2021/06/10 00:24:54;;;;;;;5.60;4.78;;;21.20;91.60;21.10;99914.00;;;;338724;28;92072;-90
2021/06/10 00:25:06;;;;;;;6.13;4.85;;;21.20;91.50;21.10;99909.00;;;;338819;28;95970;-91
2021/06/10 00:25:18;;;;;;;5.35;4.60;;;21.20;91.50;21.10;99909.00;;;;337524;28;92025;-91
2021/06/10 00:25:30;;;;;;;5.10;4.70;;;21.20;91.50;21.20;99916.00;;;;340132;28;92827;-91
2021/06/10 00:25:42;;;;;;;5.30;4.80;;;21.20;91.50;21.20;99908.00;;;;338524;28;92017;-90
2021/06/10 00:25:54;;;;;;;6.28;5.15;;;21.20;91.50;21.10;99908.00;;;;338640;28;95720;-91
2021/06/10 00:26:06;;;;;;;7.05;5.15;;;21.20;91.60;21.10;99905.00;;;;337468;28;91186;-91
2021/06/10 00:26:17;;;;;;;5.20;4.70;;;21.20;91.60;21.20;99910.00;;;;336080;28;96728;-91
2021/06/10 00:26:29;;;;;;;5.40;4.88;;;21.20;91.60;21.30;99912.00;;;;338607;28;91951;-91
2021/06/10 00:26:41;;;;;;;5.05;4.65;;;21.20;91.60;21.30;99905.00;;;;337604;28;94004;-91
2021/06/10 00:26:53;;;;;;;4.60;4.20;;;21.30;91.60;21.20;99911.00;;;;336004;28;92123;-90
2021/06/10 00:27:05;;;;;;;5.05;4.55;;;21.30;91.70;21.30;99904.00;;;;337530;28;95317;-91
2021/06/10 00:27:20;;;;;;;5.43;4.93;;;21.30;91.70;21.30;99908.00;;;;337389;28;91259;-91
2021/06/10 00:27:32;;;;;;;6.03;5.53;;;21.30;91.70;21.30;99912.00;;;;338768;28;96499;-91
2021/06/10 00:27:45;;;;;;;5.97;5.47;;;21.30;91.60;21.40;99908.00;;;;338654;28;91964;-90
2021/06/10 00:27:58;;;;;;;5.65;5.15;;;21.30;91.60;21.40;99900.00;;;;336136;28;94533;-91
2021/06/10 00:28:10;;;;;;;5.40;4.82;;;21.30;91.60;21.30;99906.00;;;;337357;28;91280;-91
2021/06/10 00:28:22;;;;;;;5.53;4.95;;;21.30;91.40;21.10;99912.00;;;;339363;28;93537;-91
2021/06/10 00:28:34;;;;;;;6.15;4.95;;;21.30;91.40;21.00;99906.00;;;;338564;28;91167;-90
2021/06/10 00:28:46;;;;;;;6.50;4.78;;;21.30;91.50;21.00;99905.00;;;;338620;28;94585;-90
2021/06/10 00:28:57;;;;;;;6.65;4.95;;;21.30;91.50;21.00;99907.00;;;;337356;28;92007;-91
2021/06/10 00:29:09;;;;;;;5.32;4.90;;;21.30;91.50;20.90;99910.00;;;;340193;28;92996;-91
2021/06/10 00:29:21;;;;;;;6.45;5.45;;;21.30;91.40;20.80;99911.00;;;;337942;28;92139;-91
2021/06/10 00:29:33;;;;;;;6.55;5.40;;;21.30;91.40;20.80;99912.00;;;;338519;28;96521;-91
2021/06/10 00:29:46;;;;;;;5.97;5.18;;;21.30;91.40;21.00;99905.00;;;;338790;28;91995;-91
2021/06/10 00:29:57;;;;;;;5.70;5.20;;;21.20;91.40;21.00;99908.00;;;;338679;28;95977;-91
2021/06/10 00:30:15;;;;;;;5.65;5.15;;;21.30;91.40;21.00;99910.00;;;;341491;28;91207;-91
2021/06/10 00:30:27;;;;;;;5.20;4.80;;;21.20;91.40;21.10;99911.00;;;;340231;28;93797;-91
2021/06/10 00:30:39;;;;;;;5.32;4.82;;;21.30;91.60;21.00;99903.00;;;;340059;28;91926;-90
2021/06/10 00:30:51;;;;;;;5.57;5.07;;;21.20;91.50;21.00;99904.00;;;;340289;28;93293;-90
2021/06/10 00:31:03;;;;;;;5.68;5.18;;;21.20;91.80;20.90;99908.00;;;;337437;28;91992;-91
2021/06/10 00:31:15;;;;;;;5.78;5.28;;;21.20;91.60;21.00;99904.00;;;;341161;28;97266;-91
2021/06/10 00:31:27;;;;;;;6.00;5.28;;;21.20;91.60;21.00;99908.00;;;;336787;28;92206;-91
2021/06/10 00:31:39;;;;;;;5.82;5.05;;;21.20;91.60;21.10;99907.00;;;;337475;28;96121;-91
2021/06/10 00:31:51;;;;;;;5.55;5.05;;;21.20;91.60;21.10;99906.00;;;;338542;28;92062;-91
2021/06/10 00:32:03;;;;;;;5.40;4.90;;;21.20;91.60;21.10;99912.00;;;;337443;28;92635;-91
2021/06/10 00:32:15;;;;;;;5.53;5.03;;;21.20;91.60;21.20;99911.00;;;;339912;28;91326;-91
2021/06/10 00:32:27;;;;;;;5.72;5.13;;;21.20;91.60;21.30;99902.00;;;;336178;28;93750;-91
2021/06/10 00:32:39;;;;;;;6.18;5.60;;;21.20;91.60;21.20;99911.00;;;;336084;28;92019;-91
2021/06/10 00:32:51;;;;;;;6.30;5.75;;;21.20;91.60;21.30;99905.00;;;;336158;28;95653;-91
2021/06/10 00:33:03;;;;;;;6.05;5.55;;;21.30;91.60;21.30;99898.00;;;;337377;28;92137;-91
2021/06/10 00:33:15;;;;;;;5.68;5.18;;;21.30;91.60;21.10;99905.00;;;;338513;28;97375;-90
2021/06/10 00:33:27;;;;;;;5.30;4.90;;;21.30;91.50;21.10;99908.00;;;;338818;28;91149;-91
2021/06/10 00:33:39;;;;;;;5.28;4.82;;;21.30;91.50;21.00;99908.00;;;;338785;28;96760;-91
2021/06/10 00:33:51;;;;;;;5.63;5.13;;;21.30;91.50;21.10;99907.00;;;;338726;28;91894;-90
2021/06/10 00:34:02;;;;;;;5.82;5.32;;;21.20;91.50;21.20;99897.00;;;;341431;28;96934;-91
2021/06/10 00:34:15;;;;;;;5.72;5.22;;;21.30;91.50;21.30;99903.00;;;;338700;28;91297;-91
2021/06/10 00:34:27;;;;;;;6.03;5.05;;;21.30;91.60;21.30;99908.00;;;;341705;28;93863;-91
2021/06/10 00:34:39;;;;;;;6.35;4.90;;;21.30;91.60;21.40;99906.00;;;;341067;28;91991;-91
2021/06/10 00:34:50;;;;;;;7.50;4.88;;;21.30;91.60;21.40;99908.00;;;;341498;28;93918;-91
2021/06/10 00:35:04;;;;;;;6.15;4.80;;;21.30;91.50;21.30;99897.00;;;;342774;28;91978;-91
2021/06/10 00:35:17;;;;;;;6.70;4.97;;;21.30;91.80;21.20;99914.00;;;;340154;28;93973;-91
2021/06/10 00:35:30;;;;;;;5.90;4.57;;;21.30;91.50;21.10;99913.00;;;;338664;28;92018;-91
2021/06/10 00:35:42;;;;;;;4.80;4.38;;;21.30;91.50;21.10;99911.00;;;;338854;28;95636;-91
2021/06/10 00:35:54;;;;;;;5.05;4.55;;;21.30;91.50;21.10;99904.00;;;;336033;28;91961;-91
2021/06/10 00:36:06;;;;;;;6.07;4.97;;;21.30;91.50;21.20;99912.00;;;;336352;28;93093;-91
2021/06/10 00:36:18;;;;;;;6.05;5.20;;;21.30;91.50;21.10;99911.00;;;;337478;28;91236;-89
2021/06/10 00:36:30;;;;;;;5.32;4.93;;;21.30;91.50;21.00;99907.00;;;;340132;28;96474;-91
2021/06/10 00:36:42;;;;;;;5.40;5.00;;;21.30;91.50;21.00;99902.00;;;;337391;28;92022;-91
2021/06/10 00:36:55;;;;;;;5.35;4.85;;;21.20;91.50;21.10;99905.00;;;;337539;28;94123;-91
2021/06/10 00:37:08;;;;;;;5.22;4.72;;;21.30;91.50;21.00;99908.00;;;;336133;28;91146;-91
2021/06/10 00:37:20;;;;;;;5.30;4.80;;;21.30;91.60;21.20;99910.00;;;;338266;28;94901;-90
2021/06/10 00:37:32;;;;;;;5.68;5.18;;;21.30;91.60;21.00;99915.00;;;;340134;28;91871;-91
2021/06/10 00:37:44;;;;;;;5.88;5.35;;;21.30;91.90;21.00;99916.00;;;;337442;28;96158;-91
2021/06/10 00:37:57;;;;;;;6.05;5.47;;;21.30;91.60;21.00;99908.00;;;;337221;28;92114;-91
2021/06/10 00:38:09;;;;;;;5.70;5.20;;;21.30;91.60;21.10;99910.00;;;;337587;28;96493;-90
2021/06/10 00:38:21;;;;;;;5.47;4.97;;;21.30;91.60;21.10;99909.00;;;;339053;28;91687;-90
2021/06/10 00:38:33;;;;;;;5.28;4.78;;;21.20;91.70;21.20;99918.00;;;;337442;28;95161;-91
2021/06/10 00:38:46;;;;;;;5.28;4.78;;;21.20;91.70;21.30;99908.00;;;;337408;28;92048;-91
2021/06/10 00:38:58;;;;;;;5.20;4.80;;;21.20;91.70;21.20;99912.00;;;;339031;28;94381;-91
2021/06/10 00:39:10;;;;;;;5.82;5.32;;;21.30;91.70;21.10;99909.00;;;;338663;28;91949;-91
2021/06/10 00:39:22;;;;;;;5.70;5.18;;;21.30;91.90;21.00;99905.00;;;;338741;28;95793;-91
2021/06/10 00:39:33;;;;;;;5.40;4.80;;;21.20;91.60;21.00;99920.00;;;;338801;28;91927;-91
2021/06/10 00:39:45;;;;;;;5.43;4.93;;;21.30;91.70;20.90;99910.00;;;;340207;28;94178;-91
2021/06/10 00:39:57;;;;;;;5.82;5.32;;;21.20;91.60;21.00;99908.00;;;;338583;28;91227;-91
2021/06/10 00:40:10;;;;;;;5.97;5.38;;;21.20;91.60;21.10;99908.00;;;;338947;28;92556;-90
2021/06/10 00:40:21;;;;;;;6.15;5.05;;;21.30;91.60;21.10;99901.00;;;;338629;28;91830;-90
2021/06/10 00:40:34;;;;;;;6.20;5.05;;;21.30;91.60;21.10;99908.00;;;;340086;28;94702;-90
2021/06/10 00:40:46;;;;;;;5.80;4.93;;;21.30;91.60;21.00;99908.00;;;;341043;28;92043;-91
2021/06/10 00:40:57;;;;;;;5.70;5.10;;;21.30;91.70;21.00;99914.00;;;;337447;28;97325;-91
2021/06/10 00:41:09;;;;;;;5.90;5.30;;;21.20;91.90;21.00;99912.00;;;;337234;28;92087;-91
2021/06/10 00:41:21;;;;;;;5.93;5.10;;;21.20;91.70;21.10;99907.00;;;;339183;28;94646;-89
2021/06/10 00:41:33;;;;;;;5.43;4.85;;;21.30;91.80;21.20;99914.00;;;;339844;28;91142;-90
2021/06/10 00:41:45;;;;;;;5.40;4.90;;;21.20;91.80;21.30;99909.00;;;;340260;28;93590;-91
2021/06/10 00:41:57;;;;;;;5.10;4.70;;;21.30;91.80;21.40;99909.00;;;;341200;28;92065;-90
2021/06/10 00:42:09;;;;;;;5.32;4.82;;;21.30;91.80;21.30;99900.00;;;;340187;28;94775;-91
2021/06/10 00:42:21;;;;;;;5.43;4.93;;;21.30;91.60;21.10;99904.00;;;;336004;28;91485;-91
2021/06/10 00:42:33;;;;;;;5.35;4.90;;;21.30;91.60;21.10;99905.00;;;;337560;28;93604;-91
2021/06/10 00:42:45;;;;;;;6.00;5.40;;;21.30;91.60;21.10;99911.00;;;;337426;28;91935;-91
2021/06/10 00:42:58;;;;;;;6.10;5.50;;;21.30;91.60;21.20;99904.00;;;;335912;28;95886;-91
2021/06/10 00:43:09;;;;;;;5.53;5.07;;;21.30;91.60;21.20;99901.00;;;;339978;28;92091;-91
2021/06/10 00:43:21;;;;;;;5.22;4.82;;;21.30;91.60;21.30;99901.00;;;;339799;28;94047;-91
2021/06/10 00:43:33;;;;;;;5.20;4.70;;;21.30;91.60;21.30;99907.00;;;;341202;28;91979;-91
2021/06/10 00:43:46;;;;;;;5.32;4.70;;;21.30;91.60;21.30;99900.00;;;;340050;28;95724;-91
2021/06/10 00:43:58;;;;;;;4.95;4.47;;;21.30;91.60;21.20;99901.00;;;;337339;28;91976;-90
2021/06/10 00:44:10;;;;;;;5.13;4.72;;;21.30;91.60;21.30;99903.00;;;;337356;28;96003;-91
2021/06/10 00:44:22;;;;;;;5.53;4.93;;;21.30;91.60;21.40;99910.00;;;;340061;28;91401;-90
2021/06/10 00:44:34;;;;;;;6.20;5.25;;;21.30;91.60;21.30;99908.00;;;;337438;28;96433;-91
2021/06/10 00:44:46;;;;;;;5.72;5.22;;;21.30;91.60;21.20;99904.00;;;;338671;28;92093;-91
2021/06/10 00:44:58;;;;;;;5.40;4.95;;;21.30;91.60;21.10;99896.00;;;;337101;28;97598;-91
2021/06/10 00:45:13;;;;;;;5.63;5.13;;;21.30;91.80;21.20;99909.00;;;;339995;28;91915;-91
2021/06/10 00:45:25;;;;;;;6.60;5.53;;;21.30;91.60;21.20;99906.00;;;;337452;28;93911;-91
2021/06/10 00:45:37;;;;;;;8.10;5.38;;;21.30;91.60;21.30;99903.00;;;;337409;28;91941;-91
2021/06/10 00:45:49;;;;;;;7.97;5.25;;;21.30;91.60;21.30;99900.00;;;;338810;28;93783;-91
2021/06/10 00:46:01;;;;;;;5.68;5.18;;;21.40;91.60;21.30;99896.00;;;;338676;28;92155;-89
2021/06/10 00:46:13;;;;;;;5.53;5.13;;;21.40;91.60;21.30;99904.00;;;;338781;28;95818;-91
2021/06/10 00:46:26;;;;;;;5.53;5.13;;;21.40;91.60;21.30;99900.00;;;;341521;28;91303;-91
2021/06/10 00:46:38;;;;;;;5.68;5.20;;;21.30;91.60;21.40;99901.00;;;;338643;28;94954;-91
2021/06/10 00:46:50;;;;;;;5.38;4.95;;;21.30;91.60;21.40;99894.00;;;;339093;28;91323;-91
2021/06/10 00:47:03;;;;;;;5.65;5.15;;;21.40;91.60;21.30;99907.00;;;;337520;28;94274;-91
2021/06/10 00:47:14;;;;;;;6.45;5.85;;;21.40;91.60;21.30;99903.00;;;;338641;28;92278;-91
2021/06/10 00:47:26;;;;;;;6.55;5.97;;;21.40;91.60;21.30;99905.00;;;;339952;28;97592;-90
2021/06/10 00:47:38;;;;;;;5.57;5.07;;;21.40;91.60;21.20;99907.00;;;;341350;28;91952;-91
2021/06/10 00:47:50;;;;;;;5.20;4.80;;;21.30;91.60;21.10;99904.00;;;;338838;28;93744;-90
2021/06/10 00:48:03;;;;;;;5.13;4.72;;;21.30;91.60;21.10;99899.00;;;;337180;28;92864;-91
2021/06/10 00:48:15;;;;;;;5.40;4.97;;;21.30;91.50;21.10;99907.00;;;;341408;28;96454;-91
2021/06/10 00:48:26;;;;;;;5.75;5.28;;;21.30;91.50;21.10;99906.00;;;;340098;28;91480;-90
2021/06/10 00:48:38;;;;;;;5.75;5.28;;;21.40;91.50;21.20;99897.00;;;;340189;28;95666;-91
2021/06/10 00:48:50;;;;;;;5.63;5.03;;;21.30;91.50;21.20;99908.00;;;;339965;28;91915;-91
2021/06/10 00:49:02;;;;;;;5.80;5.15;;;21.30;91.50;21.20;99906.00;;;;342917;28;92415;-90
2021/06/10 00:49:14;;;;;;;5.78;5.28;;;21.40;91.60;21.20;99902.00;;;;336962;28;92419;-91
2021/06/10 00:49:26;;;;;;;5.32;4.93;;;21.30;91.60;21.20;99904.00;;;;339167;28;94221;-91
2021/06/10 00:49:38;;;;;;;5.53;5.13;;;21.30;91.60;21.30;99908.00;;;;340048;28;91976;-91
2021/06/10 00:49:51;;;;;;;5.15;4.75;;;21.40;91.70;21.20;99908.00;;;;339960;28;96975;-91
2021/06/10 00:50:05;;;;;;;5.32;4.82;;;21.40;91.60;21.30;99910.00;;;;339945;28;92054;-91
2021/06/10 00:50:31;;;;;;;6.10;5.50;;;21.40;91.60;21.20;99901.00;;;;341343;28;94890;-90
2021/06/10 00:50:44;;;;;;;6.22;5.18;;;21.40;91.60;21.10;99907.00;;;;338620;28;91318;-91
2021/06/10 00:50:56;;;;;;;5.80;5.13;;;21.40;91.60;21.10;99909.00;;;;341552;28;94820;-91
2021/06/10 00:51:08;;;;;;;5.70;5.20;;;21.30;91.60;21.10;99911.00;;;;341451;28;91948;-91
2021/06/10 00:51:20;;;;;;;5.55;5.15;;;21.40;91.60;21.20;99905.00;;;;339918;28;94769;-91
2021/06/10 00:51:32;;;;;;;5.53;5.03;;;21.30;91.60;21.30;99904.00;;;;338635;28;92011;-91
2021/06/10 00:51:44;;;;;;;5.40;4.95;;;21.30;91.60;21.30;99909.00;;;;340104;28;95144;-91
2021/06/10 00:51:56;;;;;;;6.22;5.38;;;21.30;91.70;21.10;99911.00;;;;338570;28;91154;-91
2021/06/10 00:52:09;;;;;;;6.43;5.45;;;21.30;91.70;21.20;99910.00;;;;337381;28;95910;-91
2021/06/10 00:52:20;;;;;;;5.93;5.30;;;21.30;91.70;21.30;99911.00;;;;341179;28;92155;-91
2021/06/10 00:52:32;;;;;;;5.40;4.90;;;21.30;92.00;21.30;99904.00;;;;339648;28;94640;-91
2021/06/10 00:52:45;;;;;;;5.63;4.95;;;21.30;91.70;21.30;99909.00;;;;339941;28;91224;-91
2021/06/10 00:52:57;;;;;;;5.50;4.90;;;21.40;91.70;21.30;99904.00;;;;337571;28;92960;-90
2021/06/10 00:53:09;;;;;;;5.50;4.88;;;21.40;91.70;21.30;99915.00;;;;338616;28;92006;-91
2021/06/10 00:53:21;;;;;;;5.63;4.97;;;21.40;91.70;21.30;99907.00;;;;337406;28;94191;-90
2021/06/10 00:53:34;;;;;;;5.82;5.20;;;21.40;91.60;21.30;99914.00;;;;338631;28;92084;-91
2021/06/10 00:53:46;;;;;;;5.85;5.25;;;21.40;91.60;21.30;99907.00;;;;340222;28;94826;-91
2021/06/10 00:53:59;;;;;;;6.20;5.57;;;21.30;91.60;21.20;99912.00;;;;339821;28;91137;-91
2021/06/10 00:54:11;;;;;;;6.13;5.53;;;21.40;91.70;21.30;99908.00;;;;341395;28;94481;-91
2021/06/10 00:54:25;;;;;;;6.07;5.57;;;21.30;91.60;21.20;99910.00;;;;339944;28;91897;-91
2021/06/10 00:54:37;;;;;;;5.80;5.30;;;21.30;91.50;21.30;99904.00;;;;340510;28;95543;-91
2021/06/10 00:54:49;;;;;;;5.75;5.25;;;21.30;91.60;21.30;99906.00;;;;339067;28;90469;-91
2021/06/10 00:55:02;;;;;;;6.18;5.57;;;21.30;91.60;21.20;99907.00;;;;340433;28;95466;-90
2021/06/10 00:55:14;;;;;;;6.03;5.53;;;21.30;91.60;21.20;99904.00;;;;337491;28;91149;-90